KMEM

Memphis International Airport

Memphis, Tennessee, USA
METAR KMEM 171412Z 20003KT 1/4SM R36L/1200V1600FT FG BKN002 03/03 A3027 RMK AO2 T00280028
Observed Flight Rules
Dec-17 @ 14:12 UTC (17 minutes ago) Instrument Flight Rules
Wind Visibility Clouds Conditions
200° at 3 knots 1/4 miles
  • Broken at 200' AGL
  • Fog
Temperatures Readings
Current 3°C / 37°F
Dewpoint 3°C / 37°F
Humidity 100%
Altimeter 30.27" Hg
Pressure 1025 hPa
Elevation 86
METAR KMEM 171412Z 20003KT 1/4SM R36L/1200V1600FT FG BKN002 03/03 A3027 RMK AO2 T00280028
Observed Flight Rules
Dec-17 @ 14:12 UTC
(17 minutes ago)
LIFR
Wind Visibility
200° at 3 knots 1/4 miles
Clouds
  • Broken at 200' AGL
Conditions
  • Fog
Temperature Dewpoint
3°C / 37°F 3°C / 37°F
Humidity Altimeter Pressure
100% 30.27" Hg 1025 hPa